EST,Max TemperatureF,Mean TemperatureF,Min TemperatureF,Max Dew PointF,MeanDew PointF,Min DewpointF,Max Humidity, Mean Humidity, Min Humidity, Max Sea Level PressureIn, Mean Sea Level PressureIn, Min Sea Level PressureIn, Max VisibilityMiles, Mean VisibilityMiles, Min VisibilityMiles, Max Wind SpeedMPH, Mean Wind SpeedMPH, Max Gust SpeedMPH,PrecipitationIn, CloudCover, Events, WindDirDegrees
2013-11-1,69,63,57,64,60,57,100,87,73,29.86,29.75,29.68,10,9,2,20,11,28,0.12,6,Rain,215
2013-11-2,70,58,45,57,49,35,100,68,36,29.99,29.80,29.73,10,5,0,17,4,23,0.00,1,Fog,282
2013-11-3,63,54,44,40,37,35,71,54,36,30.31,30.17,29.99,10,10,10,10,4,15,0.00,0,,20
2013-11-4,60,51,42,36,34,31,71,54,36,30.51,30.44,30.35,10,10,9,14,6,18,0.00,0,,42
2013-11-5,60,49,38,48,39,30,83,67,51,30.53,30.46,30.40,10,10,9,15,8,21,0.00,2,,34
2013-11-6,71,61,51,54,50,48,93,74,55,30.41,30.28,30.12,10,10,7,13,5,16,0.00,6,,32
2013-11-7,72,60,48,59,47,28,96,66,35,30.13,30.04,29.96,10,9,2,21,7,30,0.01,4,Rain,296
2013-11-8,62,52,41,27,23,16,49,33,17,30.30,30.24,30.14,10,10,9,21,8,32,0.00,0,,351
2013-11-9,60,47,33,37,29,24,75,53,30,30.37,30.29,30.21,10,10,10,13,4,17,0.00,0,,217
2013-11-10,73,58,42,37,34,29,76,51,25,30.22,30.18,30.12,10,10,10,10,4,15,0.00,1,,318
2013-11-11,62,52,41,35,28,24,70,48,25,30.35,30.23,30.15,10,10,10,10,4,14,0.00,0,,55
2013-11-12,67,49,30,40,30,14,79,53,26,30.44,30.17,30.06,10,10,9,22,8,30,0.00,3,,345
2013-11-13,50,36,22,21,15,9,74,47,20,30.55,30.49,30.44,10,10,10,8,1,10,0.00,0,,14
2013-11-14,58,42,25,26,19,15,75,47,19,30.47,30.40,30.32,10,10,10,15,4,17,0.00,0,,223
2013-11-15,58,46,33,48,35,22,100,66,32,30.32,30.25,30.18,10,8,3,8,3,12,0.14,7,Rain,58
2013-11-16,64,56,48,54,50,46,100,86,72,30.26,30.21,30.17,10,6,2,8,3,12,T,8,,26
2013-11-17,65,60,55,61,57,52,100,89,78,30.19,30.02,29.90,10,5,1,9,3,13,0.56,8,Rain,78
2013-11-18,76,64,52,63,52,29,100,66,32,29.98,29.90,29.85,10,8,1,25,8,32,0.04,4,Rain,287
2013-11-19,58,50,41,30,26,23,58,43,27,30.23,30.11,29.97,10,10,10,20,6,29,0.00,0,,33
2013-11-20,53,45,37,32,29,27,70,56,41,30.43,30.34,30.24,10,10,10,17,8,23,0.00,2,,36
2013-11-21,52,49,45,48,41,31,100,77,53,30.45,30.41,30.36,10,8,2,15,8,20,0.11,8,Rain,27
2013-11-22,62,56,49,56,53,48,96,90,84,30.37,30.26,30.12,10,8,4,12,5,15,T,8,Rain,253
2013-11-23,61,51,40,57,47,20,100,66,31,30.21,30.11,30.07,10,6,0,22,6,30,0.00,5,Fog,312
2013-11-24,43,36,29,21,12,7,50,39,27,30.52,30.39,30.22,10,10,10,13,6,24,0.00,0,,11
2013-11-25,43,33,23,15,9,5,50,37,23,30.56,30.45,30.30,10,10,9,12,4,14,0.00,3,,38
2013-11-26,46,39,32,46,35,17,100,70,40,30.26,29.95,29.62,10,3,1,18,10,23,3.00,8,Rain,29
2013-11-27,47,38,29,46,31,14,100,73,45,30.20,29.78,29.53,10,8,1,18,10,31,0.15,5,Rain-Snow,347
2013-11-28,47,35,22,24,19,14,74,54,34,30.46,30.37,30.22,10,10,10,18,2,30,0.00,0,,180
2013-11-29,56,41,26,29,24,20,85,55,24,30.56,30.49,30.45,10,10,10,10,4,15,0.00,0,,50
2013-11-30,49,40,31,25,23,21,72,55,37,30.62,30.51,30.36,10,10,10,15,5,18,0.00,1,,34